sensor_id;sensor_type;location;lat;lon;timestamp;pressure;altitude;pressure_sealevel;temperature
81177;BMP280;74095;48.270;14.200;2024-03-29T00:02:06;96954.78;;;6.49
81177;BMP280;74095;48.270;14.200;2024-03-29T00:04:32;96964.03;;;6.51
81177;BMP280;74095;48.270;14.200;2024-03-29T00:06:58;96973.41;;;6.44
81177;BMP280;74095;48.270;14.200;2024-03-29T00:09:24;96982.88;;;6.12
81177;BMP280;74095;48.270;14.200;2024-03-29T00:11:49;96989.28;;;6.06
81177;BMP280;74095;48.270;14.200;2024-03-29T00:14:15;96998.19;;;5.97
81177;BMP280;74095;48.270;14.200;2024-03-29T00:16:41;96995.06;;;5.90
81177;BMP280;74095;48.270;14.200;2024-03-29T00:19:07;96996.13;;;5.70
81177;BMP280;74095;48.270;14.200;2024-03-29T00:21:33;96981.53;;;5.49
81177;BMP280;74095;48.270;14.200;2024-03-29T00:23:59;96986.00;;;5.53
81177;BMP280;74095;48.270;14.200;2024-03-29T00:26:25;96988.47;;;5.45
81177;BMP280;74095;48.270;14.200;2024-03-29T00:28:51;96989.59;;;5.39
81177;BMP280;74095;48.270;14.200;2024-03-29T00:31:16;96995.97;;;5.38
81177;BMP280;74095;48.270;14.200;2024-03-29T00:33:43;96992.72;;;5.17
81177;BMP280;74095;48.270;14.200;2024-03-29T00:36:08;97000.03;;;5.25
81177;BMP280;74095;48.270;14.200;2024-03-29T00:38:34;97002.47;;;5.21
81177;BMP280;74095;48.270;14.200;2024-03-29T00:41:00;97009.47;;;5.07
81177;BMP280;74095;48.270;14.200;2024-03-29T00:43:26;97001.31;;;5.04
81177;BMP280;74095;48.270;14.200;2024-03-29T00:45:52;97002.81;;;5.10
81177;BMP280;74095;48.270;14.200;2024-03-29T00:48:18;96994.88;;;5.10
81177;BMP280;74095;48.270;14.200;2024-03-29T00:50:45;96993.50;;;5.17
81177;BMP280;74095;48.270;14.200;2024-03-29T00:53:11;97004.53;;;5.24
81177;BMP280;74095;48.270;14.200;2024-03-29T00:55:37;97003.97;;;5.27
81177;BMP280;74095;48.270;14.200;2024-03-29T00:58:03;96988.50;;;4.87
81177;BMP280;74095;48.270;14.200;2024-03-29T01:00:29;96979.34;;;5.03
81177;BMP280;74095;48.270;14.200;2024-03-29T01:02:55;96986.53;;;5.26
81177;BMP280;74095;48.270;14.200;2024-03-29T01:05:21;96983.25;;;5.11
81177;BMP280;74095;48.270;14.200;2024-03-29T01:07:47;96982.72;;;5.38
81177;BMP280;74095;48.270;14.200;2024-03-29T01:10:12;96981.38;;;5.40
81177;BMP280;74095;48.270;14.200;2024-03-29T01:12:38;96978.50;;;5.37
81177;BMP280;74095;48.270;14.200;2024-03-29T01:15:05;96980.63;;;5.35
81177;BMP280;74095;48.270;14.200;2024-03-29T01:17:32;97006.31;;;5.29
81177;BMP280;74095;48.270;14.200;2024-03-29T01:19:57;97004.53;;;5.24
81177;BMP280;74095;48.270;14.200;2024-03-29T01:22:23;97005.66;;;5.18
81177;BMP280;74095;48.270;14.200;2024-03-29T01:24:49;96986.22;;;5.04
81177;BMP280;74095;48.270;14.200;2024-03-29T01:27:15;96997.09;;;5.26
81177;BMP280;74095;48.270;14.200;2024-03-29T01:29:41;96992.03;;;5.06
81177;BMP280;74095;48.270;14.200;2024-03-29T01:32:07;96984.09;;;5.06
81177;BMP280;74095;48.270;14.200;2024-03-29T01:34:33;96985.06;;;5.15
81177;BMP280;74095;48.270;14.200;2024-03-29T01:36:59;96980.88;;;5.09
81177;BMP280;74095;48.270;14.200;2024-03-29T01:39:24;96980.44;;;4.97
81177;BMP280;74095;48.270;14.200;2024-03-29T01:41:56;96993.28;;;4.80
81177;BMP280;74095;48.270;14.200;2024-03-29T01:44:22;96987.44;;;4.88
81177;BMP280;74095;48.270;14.200;2024-03-29T01:46:49;96982.75;;;4.75
81177;BMP280;74095;48.270;14.200;2024-03-29T01:49:15;96972.91;;;4.85
81177;BMP280;74095;48.270;14.200;2024-03-29T01:51:42;96969.47;;;4.90
81177;BMP280;74095;48.270;14.200;2024-03-29T01:54:08;96958.88;;;4.90
81177;BMP280;74095;48.270;14.200;2024-03-29T01:56:35;96955.25;;;4.76
81177;BMP280;74095;48.270;14.200;2024-03-29T01:59:03;96947.31;;;4.81
81177;BMP280;74095;48.270;14.200;2024-03-29T02:01:30;96945.88;;;4.94
81177;BMP280;74095;48.270;14.200;2024-03-29T02:03:56;96947.06;;;4.77
81177;BMP280;74095;48.270;14.200;2024-03-29T02:06:23;96926.16;;;4.52
81177;BMP280;74095;48.270;14.200;2024-03-29T02:08:52;96941.31;;;4.70
81177;BMP280;74095;48.270;14.200;2024-03-29T02:11:21;96929.88;;;4.51
81177;BMP280;74095;48.270;14.200;2024-03-29T02:13:49;96937.59;;;4.37
81177;BMP280;74095;48.270;14.200;2024-03-29T02:16:15;96941.56;;;4.40
81177;BMP280;74095;48.270;14.200;2024-03-29T02:18:41;96929.94;;;4.36
81177;BMP280;74095;48.270;14.200;2024-03-29T02:21:08;96943.34;;;4.50
81177;BMP280;74095;48.270;14.200;2024-03-29T02:23:36;96939.09;;;4.54
81177;BMP280;74095;48.270;14.200;2024-03-29T02:26:03;96929.63;;;4.48
81177;BMP280;74095;48.270;14.200;2024-03-29T02:28:30;96916.97;;;4.45
81177;BMP280;74095;48.270;14.200;2024-03-29T02:30:56;96921.94;;;4.51
81177;BMP280;74095;48.270;14.200;2024-03-29T02:33:22;96911.03;;;4.24
81177;BMP280;74095;48.270;14.200;2024-03-29T02:35:48;96926.06;;;4.28
81177;BMP280;74095;48.270;14.200;2024-03-29T02:38:14;96932.16;;;4.58
81177;BMP280;74095;48.270;14.200;2024-03-29T02:40:40;96927.25;;;4.75
81177;BMP280;74095;48.270;14.200;2024-03-29T02:43:05;96924.13;;;4.73
81177;BMP280;74095;48.270;14.200;2024-03-29T02:45:32;96945.25;;;4.73
81177;BMP280;74095;48.270;14.200;2024-03-29T02:47:58;96944.75;;;4.71
81177;BMP280;74095;48.270;14.200;2024-03-29T02:50:24;96949.78;;;4.72
81177;BMP280;74095;48.270;14.200;2024-03-29T02:52:50;96946.81;;;4.74
81177;BMP280;74095;48.270;14.200;2024-03-29T02:55:16;96951.03;;;4.75
81177;BMP280;74095;48.270;14.200;2024-03-29T02:57:41;96953.59;;;4.85
81177;BMP280;74095;48.270;14.200;2024-03-29T03:00:08;96934.03;;;4.86
81177;BMP280;74095;48.270;14.200;2024-03-29T03:02:38;96934.34;;;4.79
81177;BMP280;74095;48.270;14.200;2024-03-29T03:05:05;96933.41;;;4.70
81177;BMP280;74095;48.270;14.200;2024-03-29T03:07:31;96944.44;;;4.77
81177;BMP280;74095;48.270;14.200;2024-03-29T03:10:16;96936.19;;;4.84
81177;BMP280;74095;48.270;14.200;2024-03-29T03:13:00;96932.91;;;4.92
81177;BMP280;74095;48.270;14.200;2024-03-29T03:15:26;96935.25;;;4.99
81177;BMP280;74095;48.270;14.200;2024-03-29T03:17:52;96938.69;;;4.99
81177;BMP280;74095;48.270;14.200;2024-03-29T03:20:18;96941.75;;;5.11
81177;BMP280;74095;48.270;14.200;2024-03-29T03:22:45;96925.56;;;5.13
81177;BMP280;74095;48.270;14.200;2024-03-29T03:25:11;96950.41;;;5.41
81177;BMP280;74095;48.270;14.200;2024-03-29T03:27:36;96939.03;;;5.64
81177;BMP280;74095;48.270;14.200;2024-03-29T03:30:03;96938.09;;;5.73
81177;BMP280;74095;48.270;14.200;2024-03-29T03:32:29;96943.94;;;5.94
81177;BMP280;74095;48.270;14.200;2024-03-29T03:34:55;96935.50;;;5.92
81177;BMP280;74095;48.270;14.200;2024-03-29T03:37:21;96937.91;;;6.07
81177;BMP280;74095;48.270;14.200;2024-03-29T03:39:47;96936.47;;;6.34
81177;BMP280;74095;48.270;14.200;2024-03-29T03:42:13;96931.31;;;6.42
81177;BMP280;74095;48.270;14.200;2024-03-29T03:44:39;96932.00;;;6.48
81177;BMP280;74095;48.270;14.200;2024-03-29T03:47:05;96925.75;;;6.57
81177;BMP280;74095;48.270;14.200;2024-03-29T03:49:31;96908.50;;;6.60
81177;BMP280;74095;48.270;14.200;2024-03-29T03:51:57;96913.81;;;6.60
81177;BMP280;74095;48.270;14.200;2024-03-29T03:54:23;96911.25;;;6.55
81177;BMP280;74095;48.270;14.200;2024-03-29T03:56:49;96904.13;;;6.50
81177;BMP280;74095;48.270;14.200;2024-03-29T03:59:15;96916.50;;;6.41
81177;BMP280;74095;48.270;14.200;2024-03-29T04:01:41;96921.81;;;6.22
81177;BMP280;74095;48.270;14.200;2024-03-29T04:04:07;96907.28;;;6.01
81177;BMP280;74095;48.270;14.200;2024-03-29T04:06:33;96901.44;;;5.86
81177;BMP280;74095;48.270;14.200;2024-03-29T04:08:59;96921.66;;;5.76
81177;BMP280;74095;48.270;14.200;2024-03-29T04:11:25;96918.03;;;5.72
81177;BMP280;74095;48.270;14.200;2024-03-29T04:13:52;96907.13;;;5.74
81177;BMP280;74095;48.270;14.200;2024-03-29T04:16:18;96889.47;;;5.51
81177;BMP280;74095;48.270;14.200;2024-03-29T04:18:44;96893.13;;;5.55
81177;BMP280;74095;48.270;14.200;2024-03-29T04:21:10;96882.00;;;5.34
81177;BMP280;74095;48.270;14.200;2024-03-29T04:23:37;96890.66;;;5.16
81177;BMP280;74095;48.270;14.200;2024-03-29T04:26:03;96892.56;;;5.10
81177;BMP280;74095;48.270;14.200;2024-03-29T04:28:29;96894.59;;;5.18
81177;BMP280;74095;48.270;14.200;2024-03-29T04:30:59;96895.28;;;5.05
81177;BMP280;74095;48.270;14.200;2024-03-29T04:33:27;96885.34;;;4.92
81177;BMP280;74095;48.270;14.200;2024-03-29T04:36:00;96890.69;;;4.87
81177;BMP280;74095;48.270;14.200;2024-03-29T04:38:26;96909.59;;;4.99
81177;BMP280;74095;48.270;14.200;2024-03-29T04:40:54;96913.34;;;4.93
81177;BMP280;74095;48.270;14.200;2024-03-29T04:43:25;96908.53;;;5.00
81177;BMP280;74095;48.270;14.200;2024-03-29T04:46:07;96873.44;;;4.95
81177;BMP280;74095;48.270;14.200;2024-03-29T04:48:36;96889.41;;;5.08
81177;BMP280;74095;48.270;14.200;2024-03-29T04:51:02;96891.09;;;4.99
81177;BMP280;74095;48.270;14.200;2024-03-29T04:53:28;96898.91;;;5.09
81177;BMP280;74095;48.270;14.200;2024-03-29T04:55:54;96898.91;;;5.09
81177;BMP280;74095;48.270;14.200;2024-03-29T04:58:22;96904.47;;;5.08
81177;BMP280;74095;48.270;14.200;2024-03-29T05:00:48;96912.00;;;5.24
81177;BMP280;74095;48.270;14.200;2024-03-29T05:03:16;96905.38;;;5.46
81177;BMP280;74095;48.270;14.200;2024-03-29T05:05:42;96920.56;;;5.59
81177;BMP280;74095;48.270;14.200;2024-03-29T05:08:08;96903.88;;;5.58
81177;BMP280;74095;48.270;14.200;2024-03-29T05:10:34;96919.81;;;5.77
81177;BMP280;74095;48.270;14.200;2024-03-29T05:13:00;96913.19;;;5.98
81177;BMP280;74095;48.270;14.200;2024-03-29T05:15:27;96915.66;;;6.27
81177;BMP280;74095;48.270;14.200;2024-03-29T05:17:53;96915.53;;;6.51
81177;BMP280;74095;48.270;14.200;2024-03-29T05:20:21;96900.03;;;6.58
81177;BMP280;74095;48.270;14.200;2024-03-29T05:22:47;96904.97;;;6.64
81177;BMP280;74095;48.270;14.200;2024-03-29T05:25:13;96895.81;;;6.57
81177;BMP280;74095;48.270;14.200;2024-03-29T05:27:39;96887.84;;;6.43
81177;BMP280;74095;48.270;14.200;2024-03-29T05:30:05;96883.00;;;6.64
81177;BMP280;74095;48.270;14.200;2024-03-29T05:32:32;96883.22;;;6.81
81177;BMP280;74095;48.270;14.200;2024-03-29T05:34:58;96889.91;;;6.92
81177;BMP280;74095;48.270;14.200;2024-03-29T05:37:24;96874.41;;;6.99
81177;BMP280;74095;48.270;14.200;2024-03-29T05:39:51;96873.38;;;7.36
81177;BMP280;74095;48.270;14.200;2024-03-29T05:42:30;96867.25;;;7.63
81177;BMP280;74095;48.270;14.200;2024-03-29T05:44:56;96865.78;;;7.93
81177;BMP280;74095;48.270;14.200;2024-03-29T05:47:22;96859.53;;;7.97
81177;BMP280;74095;48.270;14.200;2024-03-29T05:49:49;96849.28;;;8.04
81177;BMP280;74095;48.270;14.200;2024-03-29T05:52:15;96853.38;;;7.88
81177;BMP280;74095;48.270;14.200;2024-03-29T05:54:45;96843.59;;;8.19
81177;BMP280;74095;48.270;14.200;2024-03-29T05:57:12;96838.72;;;8.44
81177;BMP280;74095;48.270;14.200;2024-03-29T05:59:38;96841.53;;;8.78
81177;BMP280;74095;48.270;14.200;2024-03-29T06:02:04;96835.94;;;8.88
81177;BMP280;74095;48.270;14.200;2024-03-29T06:04:30;96833.63;;;9.04
81177;BMP280;74095;48.270;14.200;2024-03-29T06:07:02;96820.97;;;9.27
81177;BMP280;74095;48.270;14.200;2024-03-29T06:09:29;96830.88;;;9.35
81177;BMP280;74095;48.270;14.200;2024-03-29T06:11:55;96826.16;;;9.66
81177;BMP280;74095;48.270;14.200;2024-03-29T06:14:22;96835.25;;;9.65
81177;BMP280;74095;48.270;14.200;2024-03-29T06:17:07;96829.00;;;9.61
81177;BMP280;74095;48.270;14.200;2024-03-29T06:19:57;96845.63;;;9.58
81177;BMP280;74095;48.270;14.200;2024-03-29T06:22:24;96829.47;;;9.63
81177;BMP280;74095;48.270;14.200;2024-03-29T06:24:51;96822.09;;;9.60
81177;BMP280;74095;48.270;14.200;2024-03-29T06:27:17;96815.34;;;9.88
81177;BMP280;74095;48.270;14.200;2024-03-29T06:29:44;96810.16;;;10.00
81177;BMP280;74095;48.270;14.200;2024-03-29T06:32:10;96818.72;;;10.23
81177;BMP280;74095;48.270;14.200;2024-03-29T06:34:36;96808.81;;;10.23
81177;BMP280;74095;48.270;14.200;2024-03-29T06:37:02;96806.69;;;10.46
81177;BMP280;74095;48.270;14.200;2024-03-29T06:39:28;96797.75;;;10.51
81177;BMP280;74095;48.270;14.200;2024-03-29T06:41:54;96802.03;;;10.72
81177;BMP280;74095;48.270;14.200;2024-03-29T06:44:20;96786.94;;;10.97
81177;BMP280;74095;48.270;14.200;2024-03-29T06:46:46;96779.84;;;11.10
81177;BMP280;74095;48.270;14.200;2024-03-29T06:49:12;96765.50;;;11.14
81177;BMP280;74095;48.270;14.200;2024-03-29T06:51:41;96760.59;;;11.37
81177;BMP280;74095;48.270;14.200;2024-03-29T06:54:07;96742.31;;;11.60
81177;BMP280;74095;48.270;14.200;2024-03-29T06:56:33;96756.09;;;11.62
81177;BMP280;74095;48.270;14.200;2024-03-29T06:58:59;96735.09;;;11.72
81177;BMP280;74095;48.270;14.200;2024-03-29T07:01:25;96749.28;;;11.97
81177;BMP280;74095;48.270;14.200;2024-03-29T07:03:51;96778.72;;;12.09
81177;BMP280;74095;48.270;14.200;2024-03-29T07:06:17;96790.22;;;12.22
81177;BMP280;74095;48.270;14.200;2024-03-29T07:08:43;96776.06;;;12.33
81177;BMP280;74095;48.270;14.200;2024-03-29T07:11:09;96788.22;;;12.31
81177;BMP280;74095;48.270;14.200;2024-03-29T07:13:35;96776.94;;;12.13
81177;BMP280;74095;48.270;14.200;2024-03-29T07:16:02;96772.44;;;11.93
81177;BMP280;74095;48.270;14.200;2024-03-29T07:18:28;96772.28;;;12.10
81177;BMP280;74095;48.270;14.200;2024-03-29T07:20:54;96760.00;;;12.33
81177;BMP280;74095;48.270;14.200;2024-03-29T07:23:20;96780.88;;;12.52
81177;BMP280;74095;48.270;14.200;2024-03-29T07:25:57;96779.41;;;12.67
81177;BMP280;74095;48.270;14.200;2024-03-29T07:28:24;96786.53;;;12.87
81177;BMP280;74095;48.270;14.200;2024-03-29T07:30:49;96783.72;;;12.83
81177;BMP280;74095;48.270;14.200;2024-03-29T07:33:22;96784.34;;;13.05
81177;BMP280;74095;48.270;14.200;2024-03-29T07:35:55;96771.91;;;13.24
81177;BMP280;74095;48.270;14.200;2024-03-29T07:38:21;96780.78;;;13.40
81177;BMP280;74095;48.270;14.200;2024-03-29T07:40:49;96790.63;;;13.64
81177;BMP280;74095;48.270;14.200;2024-03-29T07:43:15;96791.94;;;13.86
81177;BMP280;74095;48.270;14.200;2024-03-29T07:45:42;96800.03;;;13.74
81177;BMP280;74095;48.270;14.200;2024-03-29T07:48:12;96783.97;;;14.05
81177;BMP280;74095;48.270;14.200;2024-03-29T07:50:47;96775.22;;;13.77
81177;BMP280;74095;48.270;14.200;2024-03-29T07:53:13;96783.88;;;13.86
81177;BMP280;74095;48.270;14.200;2024-03-29T07:55:40;96768.91;;;14.16
81177;BMP280;74095;48.270;14.200;2024-03-29T07:58:06;96789.19;;;14.29
81177;BMP280;74095;48.270;14.200;2024-03-29T08:00:34;96765.44;;;14.31
81177;BMP280;74095;48.270;14.200;2024-03-29T08:03:04;96764.41;;;14.36
81177;BMP280;74095;48.270;14.200;2024-03-29T08:05:30;96764.94;;;14.26
81177;BMP280;74095;48.270;14.200;2024-03-29T08:07:56;96767.63;;;14.26
81177;BMP280;74095;48.270;14.200;2024-03-29T08:10:22;96767.28;;;14.27
81177;BMP280;74095;48.270;14.200;2024-03-29T08:12:48;96754.81;;;14.35
81177;BMP280;74095;48.270;14.200;2024-03-29T08:15:14;96749.16;;;14.55
81177;BMP280;74095;48.270;14.200;2024-03-29T08:17:40;96756.34;;;14.71
81177;BMP280;74095;48.270;14.200;2024-03-29T08:20:06;96737.59;;;14.90
81177;BMP280;74095;48.270;14.200;2024-03-29T08:22:32;96741.06;;;14.90
81177;BMP280;74095;48.270;14.200;2024-03-29T08:25:00;96746.16;;;14.95
81177;BMP280;74095;48.270;14.200;2024-03-29T08:27:27;96740.56;;;15.23
81177;BMP280;74095;48.270;14.200;2024-03-29T08:29:53;96739.25;;;15.36
81177;BMP280;74095;48.270;14.200;2024-03-29T08:32:19;96749.53;;;15.11
81177;BMP280;74095;48.270;14.200;2024-03-29T08:34:45;96733.25;;;15.04
81177;BMP280;74095;48.270;14.200;2024-03-29T08:37:11;96738.47;;;15.36
81177;BMP280;74095;48.270;14.200;2024-03-29T08:39:37;96753.31;;;15.49
81177;BMP280;74095;48.270;14.200;2024-03-29T08:42:04;96759.16;;;15.73
81177;BMP280;74095;48.270;14.200;2024-03-29T08:44:34;96759.16;;;15.73
81177;BMP280;74095;48.270;14.200;2024-03-29T08:47:01;96744.31;;;15.60
81177;BMP280;74095;48.270;14.200;2024-03-29T08:49:29;96759.50;;;15.95
81177;BMP280;74095;48.270;14.200;2024-03-29T08:51:58;96760.78;;;16.27
81177;BMP280;74095;48.270;14.200;2024-03-29T08:54:26;96767.00;;;16.34
81177;BMP280;74095;48.270;14.200;2024-03-29T08:56:53;96772.66;;;16.52
81177;BMP280;74095;48.270;14.200;2024-03-29T08:59:19;96765.97;;;15.67
81177;BMP280;74095;48.270;14.200;2024-03-29T09:01:46;96761.16;;;16.03
81177;BMP280;74095;48.270;14.200;2024-03-29T09:04:14;96779.75;;;16.64
81177;BMP280;74095;48.270;14.200;2024-03-29T09:06:41;96767.81;;;16.61
81177;BMP280;74095;48.270;14.200;2024-03-29T09:09:07;96764.97;;;16.51
81177;BMP280;74095;48.270;14.200;2024-03-29T09:11:34;96759.91;;;16.75
81177;BMP280;74095;48.270;14.200;2024-03-29T09:14:00;96755.69;;;16.48
81177;BMP280;74095;48.270;14.200;2024-03-29T09:16:27;96744.91;;;16.48
81177;BMP280;74095;48.270;14.200;2024-03-29T09:18:54;96740.16;;;16.38
81177;BMP280;74095;48.270;14.200;2024-03-29T09:21:21;96731.41;;;16.18
81177;BMP280;74095;48.270;14.200;2024-03-29T09:23:47;96730.50;;;16.63
81177;BMP280;74095;48.270;14.200;2024-03-29T09:26:15;96721.94;;;16.58
81177;BMP280;74095;48.270;14.200;2024-03-29T09:28:41;96733.78;;;16.79
81177;BMP280;74095;48.270;14.200;2024-03-29T09:31:07;96723.25;;;17.00
81177;BMP280;74095;48.270;14.200;2024-03-29T09:33:33;96732.72;;;17.21
81177;BMP280;74095;48.270;14.200;2024-03-29T09:35:59;96731.41;;;17.08
81177;BMP280;74095;48.270;14.200;2024-03-29T09:38:28;96730.91;;;17.32
81177;BMP280;74095;48.270;14.200;2024-03-29T09:41:10;96722.78;;;17.72
81177;BMP280;74095;48.270;14.200;2024-03-29T09:43:37;96722.78;;;17.72
81177;BMP280;74095;48.270;14.200;2024-03-29T09:46:05;96712.13;;;17.46
81177;BMP280;74095;48.270;14.200;2024-03-29T09:48:31;96713.44;;;17.19
81177;BMP280;74095;48.270;14.200;2024-03-29T09:51:06;96704.38;;;17.37
81177;BMP280;74095;48.270;14.200;2024-03-29T09:53:36;96711.88;;;17.61
81177;BMP280;74095;48.270;14.200;2024-03-29T09:56:05;96714.63;;;17.65
81177;BMP280;74095;48.270;14.200;2024-03-29T09:58:33;96702.13;;;17.94
81177;BMP280;74095;48.270;14.200;2024-03-29T10:01:03;96711.97;;;18.26
81177;BMP280;74095;48.270;14.200;2024-03-29T10:03:29;96713.47;;;18.17
81177;BMP280;74095;48.270;14.200;2024-03-29T10:05:57;96705.09;;;18.40
81177;BMP280;74095;48.270;14.200;2024-03-29T10:08:28;96702.25;;;18.11
81177;BMP280;74095;48.270;14.200;2024-03-29T10:10:56;96691.13;;;18.23
81177;BMP280;74095;48.270;14.200;2024-03-29T10:13:22;96705.81;;;18.29
81177;BMP280;74095;48.270;14.200;2024-03-29T10:15:55;96702.69;;;18.24
81177;BMP280;74095;48.270;14.200;2024-03-29T10:18:26;96690.03;;;18.39
81177;BMP280;74095;48.270;14.200;2024-03-29T10:21:03;96697.41;;;18.49
81177;BMP280;74095;48.270;14.200;2024-03-29T10:23:30;96680.03;;;18.43
81177;BMP280;74095;48.270;14.200;2024-03-29T10:25:56;96671.16;;;18.42
81177;BMP280;74095;48.270;14.200;2024-03-29T10:28:23;96672.34;;;18.52
81177;BMP280;74095;48.270;14.200;2024-03-29T10:30:49;96666.44;;;18.25
81177;BMP280;74095;48.270;14.200;2024-03-29T10:33:18;96648.69;;;18.20
81177;BMP280;74095;48.270;14.200;2024-03-29T10:35:44;96655.66;;;18.28
81177;BMP280;74095;48.270;14.200;2024-03-29T10:38:11;96647.13;;;18.19
81177;BMP280;74095;48.270;14.200;2024-03-29T10:40:41;96655.75;;;18.57
81177;BMP280;74095;48.270;14.200;2024-03-29T10:43:09;96641.84;;;18.48
81177;BMP280;74095;48.270;14.200;2024-03-29T10:45:38;96659.66;;;18.63
81177;BMP280;74095;48.270;14.200;2024-03-29T10:48:05;96638.47;;;18.75
81177;BMP280;74095;48.270;14.200;2024-03-29T10:50:37;96638.09;;;19.02
81177;BMP280;74095;48.270;14.200;2024-03-29T10:53:05;96635.03;;;19.21
81177;BMP280;74095;48.270;14.200;2024-03-29T10:55:35;96646.66;;;19.35
81177;BMP280;74095;48.270;14.200;2024-03-29T10:58:03;96646.63;;;19.56
81177;BMP280;74095;48.270;14.200;2024-03-29T11:00:33;96635.00;;;19.70
81177;BMP280;74095;48.270;14.200;2024-03-29T11:03:14;96643.44;;;19.93
81177;BMP280;74095;48.270;14.200;2024-03-29T11:05:46;96637.25;;;19.93
81177;BMP280;74095;48.270;14.200;2024-03-29T11:08:15;96630.38;;;19.56
81177;BMP280;74095;48.270;14.200;2024-03-29T11:10:44;96623.38;;;19.84
81177;BMP280;74095;48.270;14.200;2024-03-29T11:13:27;96634.50;;;20.10
81177;BMP280;74095;48.270;14.200;2024-03-29T11:15:57;96631.03;;;20.03
81177;BMP280;74095;48.270;14.200;2024-03-29T11:18:26;96617.16;;;19.94
81177;BMP280;74095;48.270;14.200;2024-03-29T11:20:53;96614.78;;;20.03
81177;BMP280;74095;48.270;14.200;2024-03-29T11:23:20;96613.97;;;20.09
81177;BMP280;74095;48.270;14.200;2024-03-29T11:25:56;96590.81;;;19.98
81177;BMP280;74095;48.270;14.200;2024-03-29T11:28:28;96614.00;;;20.13
81177;BMP280;74095;48.270;14.200;2024-03-29T11:31:00;96600.38;;;20.27
81177;BMP280;74095;48.270;14.200;2024-03-29T11:36:13;96603.72;;;20.52
81177;BMP280;74095;48.270;14.200;2024-03-29T11:38:39;96600.56;;;20.68
81177;BMP280;74095;48.270;14.200;2024-03-29T11:41:13;96604.34;;;20.77
81177;BMP280;74095;48.270;14.200;2024-03-29T11:43:40;96593.03;;;20.24
81177;BMP280;74095;48.270;14.200;2024-03-29T11:46:08;96590.72;;;20.19
81177;BMP280;74095;48.270;14.200;2024-03-29T11:48:35;96583.63;;;20.46
81177;BMP280;74095;48.270;14.200;2024-03-29T11:51:03;96570.75;;;20.57
81177;BMP280;74095;48.270;14.200;2024-03-29T11:53:30;96556.22;;;20.85
81177;BMP280;74095;48.270;14.200;2024-03-29T11:55:58;96559.97;;;21.01
81177;BMP280;74095;48.270;14.200;2024-03-29T11:58:26;96570.00;;;21.12
81177;BMP280;74095;48.270;14.200;2024-03-29T12:00:52;96563.06;;;21.04
81177;BMP280;74095;48.270;14.200;2024-03-29T12:03:20;96572.22;;;21.20
81177;BMP280;74095;48.270;14.200;2024-03-29T12:05:49;96566.09;;;21.13
81177;BMP280;74095;48.270;14.200;2024-03-29T12:08:16;96560.66;;;21.13
81177;BMP280;74095;48.270;14.200;2024-03-29T12:10:42;96558.50;;;20.93
81177;BMP280;74095;48.270;14.200;2024-03-29T12:13:09;96548.69;;;21.07
81177;BMP280;74095;48.270;14.200;2024-03-29T12:15:35;96567.84;;;20.89
81177;BMP280;74095;48.270;14.200;2024-03-29T12:18:02;96571.00;;;20.84
81177;BMP280;74095;48.270;14.200;2024-03-29T12:20:29;96559.38;;;20.83
81177;BMP280;74095;48.270;14.200;2024-03-29T12:22:59;96575.56;;;20.90
81177;BMP280;74095;48.270;14.200;2024-03-29T12:25:28;96558.47;;;21.01
81177;BMP280;74095;48.270;14.200;2024-03-29T12:27:55;96547.53;;;21.08
81177;BMP280;74095;48.270;14.200;2024-03-29T12:30:22;96547.94;;;21.02
81177;BMP280;74095;48.270;14.200;2024-03-29T12:32:48;96555.09;;;21.27
81177;BMP280;74095;48.270;14.200;2024-03-29T12:35:15;96546.59;;;21.25
81177;BMP280;74095;48.270;14.200;2024-03-29T12:37:48;96544.13;;;21.37
81177;BMP280;74095;48.270;14.200;2024-03-29T12:40:18;96538.84;;;21.23
81177;BMP280;74095;48.270;14.200;2024-03-29T12:42:52;96534.06;;;21.34
81177;BMP280;74095;48.270;14.200;2024-03-29T12:45:18;96523.25;;;21.31
81177;BMP280;74095;48.270;14.200;2024-03-29T12:47:46;96528.09;;;21.13
81177;BMP280;74095;48.270;14.200;2024-03-29T12:50:32;96540.78;;;21.23
81177;BMP280;74095;48.270;14.200;2024-03-29T12:53:00;96522.56;;;21.23
81177;BMP280;74095;48.270;14.200;2024-03-29T12:55:28;96525.50;;;21.39
81177;BMP280;74095;48.270;14.200;2024-03-29T12:57:57;96520.25;;;21.59
81177;BMP280;74095;48.270;14.200;2024-03-29T13:00:23;96532.84;;;21.76
81177;BMP280;74095;48.270;14.200;2024-03-29T13:02:49;96518.13;;;22.00
81177;BMP280;74095;48.270;14.200;2024-03-29T13:05:16;96518.63;;;21.95
81177;BMP280;74095;48.270;14.200;2024-03-29T13:07:42;96510.72;;;22.04
81177;BMP280;74095;48.270;14.200;2024-03-29T13:10:08;96513.94;;;21.99
81177;BMP280;74095;48.270;14.200;2024-03-29T13:13:00;96503.84;;;21.96
81177;BMP280;74095;48.270;14.200;2024-03-29T13:15:27;96520.19;;;21.93
81177;BMP280;74095;48.270;14.200;2024-03-29T13:17:54;96509.97;;;22.00
81177;BMP280;74095;48.270;14.200;2024-03-29T13:20:21;96517.69;;;22.05
81177;BMP280;74095;48.270;14.200;2024-03-29T13:22:48;96491.34;;;22.02
81177;BMP280;74095;48.270;14.200;2024-03-29T13:25:16;96500.19;;;22.10
81177;BMP280;74095;48.270;14.200;2024-03-29T13:27:43;96508.00;;;22.04
81177;BMP280;74095;48.270;14.200;2024-03-29T13:30:11;96498.03;;;21.94
81177;BMP280;74095;48.270;14.200;2024-03-29T13:32:41;96505.00;;;21.99
81177;BMP280;74095;48.270;14.200;2024-03-29T13:35:08;96506.94;;;21.98
81177;BMP280;74095;48.270;14.200;2024-03-29T13:37:43;96508.56;;;21.92
81177;BMP280;74095;48.270;14.200;2024-03-29T13:40:12;96494.97;;;21.62
81177;BMP280;74095;48.270;14.200;2024-03-29T13:42:38;96489.22;;;21.60
81177;BMP280;74095;48.270;14.200;2024-03-29T13:45:05;96494.25;;;21.58
81177;BMP280;74095;48.270;14.200;2024-03-29T13:47:36;96504.13;;;21.75
81177;BMP280;74095;48.270;14.200;2024-03-29T13:50:02;96495.47;;;21.84
81177;BMP280;74095;48.270;14.200;2024-03-29T13:52:29;96491.25;;;22.09
81177;BMP280;74095;48.270;14.200;2024-03-29T13:54:56;96499.41;;;21.79
81177;BMP280;74095;48.270;14.200;2024-03-29T13:57:22;96489.84;;;21.71
81177;BMP280;74095;48.270;14.200;2024-03-29T13:59:48;96500.88;;;21.87
81177;BMP280;74095;48.270;14.200;2024-03-29T14:02:16;96487.75;;;21.82
81177;BMP280;74095;48.270;14.200;2024-03-29T14:04:43;96494.91;;;21.99
81177;BMP280;74095;48.270;14.200;2024-03-29T14:07:10;96484.19;;;22.15